PWSweather.com
Personal Weather Stations
Station Observations
KTXROWLE6
Ravens Nest, Rowlett, TX 75089

Ravens NestRowlett, TX 75089

Lat: 32.93105, Lon: -96.57368

Elevation: 556

Station Type: Davis Vantage Pro2 6152

http://rowlett.ws

High Low Average
Temperature 98.8°F37.1°C 76.6°F24.8°C 87.7°F30.9°C
Dew Point 71.4°F21.9°C 62.3°F16.8°C 67.4°F19.7°C
Winds 5.7 mph 9.2 kmh Calm Calm 2.0 mph S3.2 kmh S
Wind Gusts 11.0 mph17.7 kmh -- 6.0 mph9.7 kmh
Humidity 76% 31% 53%
Pressure 30.01 in1016.3 mb 29.89 in1012.2 mb -
Precipitation 0.00 in0.0 mm - -
Hour Temp Dew Point Humidity Winds Wind Gusts Pressure Precip Precip Rate Daily Precip Total
12:00 AM 81.4°F27.4°C 68.9°F20.5°C 66% 1.5 mph SSE2.4 kmh SSE 4.0 mph6.4 kmh 29.95 in1014.2 mb 0.00 in0.0 mm 0.00 in0.0 mm 0.00 in0.0 mm
12:05 AM 81.6°F27.6°C 69.1°F20.6°C 66% 1.5 mph SSE2.4 kmh SSE 4.0 mph6.4 kmh 29.95 in1014.2 mb 0.00 in0.0 mm 0.00 in0.0 mm 0.00 in0.0 mm
12:10 AM 81.7°F27.6°C 68.8°F20.4°C 65% 1.0 mph SSE1.6 kmh SSE 4.0 mph6.4 kmh 29.96 in1014.6 mb 0.00 in0.0 mm 0.00 in0.0 mm 0.00 in0.0 mm
12:15 AM 81.8°F27.7°C 68.9°F20.5°C 65% 1.6 mph SSE2.6 kmh SSE 4.0 mph6.4 kmh 29.96 in1014.6 mb 0.00 in0.0 mm 0.00 in0.0 mm 0.00 in0.0 mm
12:20 AM 81.8°F27.7°C 68.9°F20.5°C 65% 2.3 mph SSE3.7 kmh SSE 5.0 mph8.0 kmh 29.95 in1014.2 mb 0.00 in0.0 mm 0.00 in0.0 mm 0.00 in0.0 mm
12:25 AM 81.6°F27.6°C 68.7°F20.4°C 65% 3.0 mph SSE4.8 kmh SSE 6.0 mph9.7 kmh 29.95 in1014.2 mb 0.00 in0.0 mm 0.00 in0.0 mm 0.00 in0.0 mm
12:30 AM 81.5°F27.5°C 69.0°F20.6°C 66% 2.4 mph SSE3.9 kmh SSE 6.0 mph9.7 kmh 29.95 in1014.2 mb 0.00 in0.0 mm 0.00 in0.0 mm 0.00 in0.0 mm
12:35 AM 81.4°F27.4°C 68.9°F20.5°C 66% 2.2 mph SE3.5 kmh SE 5.0 mph8.0 kmh 29.95 in1014.2 mb 0.00 in0.0 mm 0.00 in0.0 mm 0.00 in0.0 mm
12:40 AM 81.4°F27.4°C 68.9°F20.5°C 66% 1.4 mph SE2.3 kmh SE 4.0 mph6.4 kmh 29.95 in1014.2 mb 0.00 in0.0 mm 0.00 in0.0 mm 0.00 in0.0 mm
12:45 AM 81.0°F27.2°C 69.0°F20.6°C 67% 1.0 mph SE1.6 kmh SE 3.0 mph4.8 kmh 29.95 in1014.2 mb 0.00 in0.0 mm 0.00 in0.0 mm 0.00 in0.0 mm
12:50 AM 80.8°F27.1°C 68.8°F20.4°C 67% 1.6 mph SSE2.6 kmh SSE 4.0 mph6.4 kmh 29.95 in1014.2 mb 0.00 in0.0 mm 0.00 in0.0 mm 0.00 in0.0 mm
12:55 AM 80.5°F26.9°C 68.9°F20.5°C 68% 0.6 mph SSE1.0 kmh SSE 4.0 mph6.4 kmh 29.95 in1014.2 mb 0.00 in0.0 mm 0.00 in0.0 mm 0.00 in0.0 mm
01:00 AM 80.3°F26.8°C 68.8°F20.4°C 68% 0.5 mph S0.8 kmh S 3.0 mph4.8 kmh 29.95 in1014.2 mb 0.00 in0.0 mm 0.00 in0.0 mm 0.00 in0.0 mm
01:05 AM 80.1°F26.7°C 69.0°F20.6°C 69% 0.9 mph S1.4 kmh S 3.0 mph4.8 kmh 29.95 in1014.2 mb 0.00 in0.0 mm 0.00 in0.0 mm 0.00 in0.0 mm
01:10 AM 80.2°F26.8°C 69.1°F20.6°C 69% 1.0 mph S1.6 kmh S 2.0 mph3.2 kmh 29.95 in1014.2 mb 0.00 in0.0 mm 0.00 in0.0 mm 0.00 in0.0 mm
01:15 AM 80.1°F26.7°C 69.0°F20.6°C 69% 0.6 mph S1.0 kmh S 4.0 mph6.4 kmh 29.95 in1014.2 mb 0.00 in0.0 mm 0.00 in0.0 mm 0.00 in0.0 mm
01:20 AM 80.1°F26.7°C 69.0°F20.6°C 69% 1.0 mph S1.6 kmh S 4.0 mph6.4 kmh 29.95 in1014.2 mb 0.00 in0.0 mm 0.00 in0.0 mm 0.00 in0.0 mm
01:25 AM 80.2°F26.8°C 69.1°F20.6°C 69% 1.1 mph S1.8 kmh S 3.0 mph4.8 kmh 29.94 in1013.9 mb 0.00 in0.0 mm 0.00 in0.0 mm 0.00 in0.0 mm
01:30 AM 80.2°F26.8°C 69.1°F20.6°C 69% 1.1 mph S1.8 kmh S 4.0 mph6.4 kmh 29.95 in1014.2 mb 0.00 in0.0 mm 0.00 in0.0 mm 0.00 in0.0 mm
01:35 AM 80.2°F26.8°C 69.1°F20.6°C 69% 1.4 mph S2.3 kmh S 4.0 mph6.4 kmh 29.95 in1014.2 mb 0.00 in0.0 mm 0.00 in0.0 mm 0.00 in0.0 mm
01:40 AM 80.3°F26.8°C 69.2°F20.7°C 69% 1.8 mph S2.9 kmh S 4.0 mph6.4 kmh 29.95 in1014.2 mb 0.00 in0.0 mm 0.00 in0.0 mm 0.00 in0.0 mm
01:45 AM 80.3°F26.8°C 68.8°F20.4°C 68% 2.2 mph SSE3.5 kmh SSE 6.0 mph9.7 kmh 29.95 in1014.2 mb 0.00 in0.0 mm 0.00 in0.0 mm 0.00 in0.0 mm
01:50 AM 80.2°F26.8°C 69.1°F20.6°C 69% 2.4 mph S3.9 kmh S 6.0 mph9.7 kmh 29.95 in1014.2 mb 0.00 in0.0 mm 0.00 in0.0 mm 0.00 in0.0 mm
01:55 AM 80.1°F26.7°C 69.0°F20.6°C 69% 1.2 mph S1.9 kmh S 5.0 mph8.0 kmh 29.95 in1014.2 mb 0.00 in0.0 mm 0.00 in0.0 mm 0.00 in0.0 mm
02:00 AM 79.9°F26.6°C 68.8°F20.4°C 69% 2.1 mph SSE3.4 kmh SSE 4.0 mph6.4 kmh 29.95 in1014.2 mb 0.00 in0.0 mm 0.00 in0.0 mm 0.00 in0.0 mm
02:05 AM 79.8°F26.6°C 68.7°F20.4°C 69% 2.4 mph SSE3.9 kmh SSE 5.0 mph8.0 kmh 29.95 in1014.2 mb 0.00 in0.0 mm 0.00 in0.0 mm 0.00 in0.0 mm
02:10 AM 79.7°F26.5°C 68.6°F20.3°C 69% 1.4 mph SSE2.3 kmh SSE 5.0 mph8.0 kmh 29.95 in1014.2 mb 0.00 in0.0 mm 0.00 in0.0 mm 0.00 in0.0 mm
02:15 AM 79.6°F26.4°C 68.9°F20.5°C 70% 1.3 mph SSE2.1 kmh SSE 3.0 mph4.8 kmh 29.95 in1014.2 mb 0.00 in0.0 mm 0.00 in0.0 mm 0.00 in0.0 mm
02:20 AM 79.5°F26.4°C 68.8°F20.4°C 70% 1.4 mph S2.3 kmh S 3.0 mph4.8 kmh 29.95 in1014.2 mb 0.00 in0.0 mm 0.00 in0.0 mm 0.00 in0.0 mm
02:25 AM 79.4°F26.3°C 68.7°F20.4°C 70% 1.8 mph S2.9 kmh S 4.0 mph6.4 kmh 29.95 in1014.2 mb 0.00 in0.0 mm 0.00 in0.0 mm 0.00 in0.0 mm
02:30 AM 79.4°F26.3°C 68.7°F20.4°C 70% 1.9 mph SSE3.1 kmh SSE 5.0 mph8.0 kmh 29.95 in1014.2 mb 0.00 in0.0 mm 0.00 in0.0 mm 0.00 in0.0 mm
02:35 AM 79.2°F26.2°C 68.6°F20.3°C 70% 1.0 mph S1.6 kmh S 5.0 mph8.0 kmh 29.95 in1014.2 mb 0.00 in0.0 mm 0.00 in0.0 mm 0.00 in0.0 mm
02:40 AM 79.0°F26.1°C 68.8°F20.4°C 71% 1.1 mph S1.8 kmh S 4.0 mph6.4 kmh 29.95 in1014.2 mb 0.00 in0.0 mm 0.00 in0.0 mm 0.00 in0.0 mm
02:45 AM 78.9°F26.1°C 68.7°F20.4°C 71% 1.8 mph SSE2.9 kmh SSE 3.0 mph4.8 kmh 29.95 in1014.2 mb 0.00 in0.0 mm 0.00 in0.0 mm 0.00 in0.0 mm
02:50 AM 78.8°F26.0°C 68.6°F20.3°C 71% 0.4 mph SSE0.6 kmh SSE 3.0 mph4.8 kmh 29.95 in1014.2 mb 0.00 in0.0 mm 0.00 in0.0 mm 0.00 in0.0 mm
02:55 AM 78.6°F25.9°C 68.4°F20.2°C 71% Calm Calm 2.0 mph3.2 kmh 29.95 in1014.2 mb 0.00 in0.0 mm 0.00 in0.0 mm 0.00 in0.0 mm
03:00 AM 78.5°F25.8°C 68.7°F20.4°C 72% Calm Calm -- 29.95 in1014.2 mb 0.00 in0.0 mm 0.00 in0.0 mm 0.00 in0.0 mm
03:05 AM 78.5°F25.8°C 68.7°F20.4°C 72% 0.6 mph SSE1.0 kmh SSE 3.0 mph4.8 kmh 29.95 in1014.2 mb 0.00 in0.0 mm 0.00 in0.0 mm 0.00 in0.0 mm
03:10 AM 78.4°F25.8°C 68.6°F20.3°C 72% 1.0 mph S1.6 kmh S 3.0 mph4.8 kmh 29.95 in1014.2 mb 0.00 in0.0 mm 0.00 in0.0 mm 0.00 in0.0 mm
03:15 AM 78.4°F25.8°C 68.6°F20.3°C 72% 0.6 mph S1.0 kmh S 3.0 mph4.8 kmh 29.95 in1014.2 mb 0.00 in0.0 mm 0.00 in0.0 mm 0.00 in0.0 mm
03:20 AM 78.4°F25.8°C 68.6°F20.3°C 72% 0.7 mph S1.1 kmh S 3.0 mph4.8 kmh 29.95 in1014.2 mb 0.00 in0.0 mm 0.00 in0.0 mm 0.00 in0.0 mm
03:25 AM 78.4°F25.8°C 68.6°F20.3°C 72% 0.8 mph S1.3 kmh S 2.0 mph3.2 kmh 29.95 in1014.2 mb 0.00 in0.0 mm 0.00 in0.0 mm 0.00 in0.0 mm
03:30 AM 78.2°F25.7°C 68.4°F20.2°C 72% 0.7 mph S1.1 kmh S 3.0 mph4.8 kmh 29.95 in1014.2 mb 0.00 in0.0 mm 0.00 in0.0 mm 0.00 in0.0 mm
03:35 AM 78.2°F25.7°C 68.4°F20.2°C 72% 0.8 mph S1.3 kmh S 3.0 mph4.8 kmh 29.95 in1014.2 mb 0.00 in0.0 mm 0.00 in0.0 mm 0.00 in0.0 mm
03:40 AM 78.1°F25.6°C 68.3°F20.2°C 72% 0.5 mph S0.8 kmh S 2.0 mph3.2 kmh 29.95 in1014.2 mb 0.00 in0.0 mm 0.00 in0.0 mm 0.00 in0.0 mm
03:45 AM 78.0°F25.6°C 68.6°F20.3°C 73% 0.6 mph S1.0 kmh S 2.0 mph3.2 kmh 29.95 in1014.2 mb 0.00 in0.0 mm 0.00 in0.0 mm 0.00 in0.0 mm
03:50 AM 77.9°F25.5°C 68.5°F20.3°C 73% 1.1 mph S1.8 kmh S 3.0 mph4.8 kmh 29.95 in1014.2 mb 0.00 in0.0 mm 0.00 in0.0 mm 0.00 in0.0 mm
03:55 AM 77.9°F25.5°C 68.5°F20.3°C 73% 1.2 mph S1.9 kmh S 3.0 mph4.8 kmh 29.95 in1014.2 mb 0.00 in0.0 mm 0.00 in0.0 mm 0.00 in0.0 mm
04:00 AM 77.8°F25.4°C 68.4°F20.2°C 73% 0.1 mph SSE0.2 kmh SSE 2.0 mph3.2 kmh 29.95 in1014.2 mb 0.00 in0.0 mm 0.00 in0.0 mm 0.00 in0.0 mm
04:05 AM 77.6°F25.3°C 68.2°F20.1°C 73% 0.7 mph SSE1.1 kmh SSE 2.0 mph3.2 kmh 29.96 in1014.6 mb 0.00 in0.0 mm 0.00 in0.0 mm 0.00 in0.0 mm
04:10 AM 77.4°F25.2°C 68.0°F20.0°C 73% Calm Calm 2.0 mph3.2 kmh 29.96 in1014.6 mb 0.00 in0.0 mm 0.00 in0.0 mm 0.00 in0.0 mm
04:15 AM 77.3°F25.2°C 68.3°F20.2°C 74% 0.7 mph SSE1.1 kmh SSE 2.0 mph3.2 kmh 29.96 in1014.6 mb 0.00 in0.0 mm 0.00 in0.0 mm 0.00 in0.0 mm
04:20 AM 77.2°F25.1°C 68.3°F20.2°C 74% 0.4 mph SSE0.6 kmh SSE 2.0 mph3.2 kmh 29.96 in1014.6 mb 0.00 in0.0 mm 0.00 in0.0 mm 0.00 in0.0 mm
04:25 AM 77.2°F25.1°C 68.3°F20.2°C 74% Calm Calm 2.0 mph3.2 kmh 29.96 in1014.6 mb 0.00 in0.0 mm 0.00 in0.0 mm 0.00 in0.0 mm
04:30 AM 77.1°F25.1°C 68.2°F20.1°C 74% Calm Calm -- 29.96 in1014.6 mb 0.00 in0.0 mm 0.00 in0.0 mm 0.00 in0.0 mm
04:35 AM 77.0°F25.0°C 68.5°F20.3°C 75% Calm Calm -- 29.96 in1014.6 mb 0.00 in0.0 mm 0.00 in0.0 mm 0.00 in0.0 mm
04:40 AM 77.1°F25.1°C 68.5°F20.3°C 75% 0.1 mph SSE0.2 kmh SSE 1.0 mph1.6 kmh 29.96 in1014.6 mb 0.00 in0.0 mm 0.00 in0.0 mm 0.00 in0.0 mm
04:45 AM 77.0°F25.0°C 68.5°F20.3°C 75% 0.2 mph SSE0.3 kmh SSE 2.0 mph3.2 kmh 29.97 in1014.9 mb 0.00 in0.0 mm 0.00 in0.0 mm 0.00 in0.0 mm
04:50 AM 77.1°F25.1°C 68.5°F20.3°C 75% 0.3 mph SSE0.5 kmh SSE 2.0 mph3.2 kmh 29.97 in1014.9 mb 0.00 in0.0 mm 0.00 in0.0 mm 0.00 in0.0 mm
04:55 AM 77.0°F25.0°C 68.5°F20.3°C 75% 1.1 mph SSE1.8 kmh SSE 3.0 mph4.8 kmh 29.97 in1014.9 mb 0.00 in0.0 mm 0.00 in0.0 mm 0.00 in0.0 mm
05:00 AM 77.0°F25.0°C 68.5°F20.3°C 75% 0.7 mph SSE1.1 kmh SSE 3.0 mph4.8 kmh 29.97 in1014.9 mb 0.00 in0.0 mm 0.00 in0.0 mm 0.00 in0.0 mm
05:05 AM 77.0°F25.0°C 68.5°F20.3°C 75% 1.2 mph SSE1.9 kmh SSE 3.0 mph4.8 kmh 29.97 in1014.9 mb 0.00 in0.0 mm 0.00 in0.0 mm 0.00 in0.0 mm
05:10 AM 76.9°F24.9°C 68.4°F20.2°C 75% 1.8 mph SSE2.9 kmh SSE 3.0 mph4.8 kmh 29.98 in1015.2 mb 0.00 in0.0 mm 0.00 in0.0 mm 0.00 in0.0 mm
05:15 AM 76.9°F24.9°C 68.4°F20.2°C 75% 1.4 mph SSE2.3 kmh SSE 3.0 mph4.8 kmh 29.98 in1015.2 mb 0.00 in0.0 mm 0.00 in0.0 mm 0.00 in0.0 mm
05:20 AM 76.8°F24.9°C 68.3°F20.2°C 75% 1.5 mph SSE2.4 kmh SSE 3.0 mph4.8 kmh 29.98 in1015.2 mb 0.00 in0.0 mm 0.00 in0.0 mm 0.00 in0.0 mm
05:25 AM 76.9°F24.9°C 68.4°F20.2°C 75% 1.2 mph S1.9 kmh S 4.0 mph6.4 kmh 29.98 in1015.2 mb 0.00 in0.0 mm 0.00 in0.0 mm 0.00 in0.0 mm
05:30 AM 76.9°F24.9°C 68.4°F20.2°C 75% 1.2 mph S1.9 kmh S 4.0 mph6.4 kmh 29.98 in1015.2 mb 0.00 in0.0 mm 0.00 in0.0 mm 0.00 in0.0 mm
05:35 AM 76.9°F24.9°C 68.4°F20.2°C 75% 0.7 mph S1.1 kmh S 3.0 mph4.8 kmh 29.98 in1015.2 mb 0.00 in0.0 mm 0.00 in0.0 mm 0.00 in0.0 mm
05:40 AM 76.9°F24.9°C 68.4°F20.2°C 75% 0.3 mph SSE0.5 kmh SSE 2.0 mph3.2 kmh 29.99 in1015.6 mb 0.00 in0.0 mm 0.00 in0.0 mm 0.00 in0.0 mm
05:45 AM 76.8°F24.9°C 68.3°F20.2°C 75% 0.5 mph S0.8 kmh S 2.0 mph3.2 kmh 29.99 in1015.6 mb 0.00 in0.0 mm 0.00 in0.0 mm 0.00 in0.0 mm
05:50 AM 76.6°F24.8°C 68.5°F20.3°C 76% 1.0 mph SSW1.6 kmh SSW 3.0 mph4.8 kmh 29.99 in1015.6 mb 0.00 in0.0 mm 0.00 in0.0 mm 0.00 in0.0 mm
05:55 AM 76.6°F24.8°C 68.5°F20.3°C 76% 0.3 mph S0.5 kmh S 3.0 mph4.8 kmh 29.99 in1015.6 mb 0.00 in0.0 mm 0.00 in0.0 mm 0.00 in0.0 mm
06:00 AM 76.6°F24.8°C 68.5°F20.3°C 76% 0.1 mph S0.2 kmh S 2.0 mph3.2 kmh 29.99 in1015.6 mb 0.00 in0.0 mm 0.00 in0.0 mm 0.00 in0.0 mm
06:05 AM 76.8°F24.9°C 68.6°F20.3°C 76% 0.4 mph S0.6 kmh S 1.0 mph1.6 kmh 29.99 in1015.6 mb 0.00 in0.0 mm 0.00 in0.0 mm 0.00 in0.0 mm
06:10 AM 76.8°F24.9°C 68.6°F20.3°C 76% Calm Calm 1.0 mph1.6 kmh 29.99 in1015.6 mb 0.00 in0.0 mm 0.00 in0.0 mm 0.00 in0.0 mm
06:15 AM 76.9°F24.9°C 68.7°F20.4°C 76% 0.1 mph SE0.2 kmh SE 2.0 mph3.2 kmh 29.99 in1015.6 mb 0.00 in0.0 mm 0.00 in0.0 mm 0.00 in0.0 mm
06:20 AM 77.2°F25.1°C 68.6°F20.3°C 75% 0.5 mph S0.8 kmh S 2.0 mph3.2 kmh 29.99 in1015.6 mb 0.00 in0.0 mm 0.00 in0.0 mm 0.00 in0.0 mm
06:25 AM 77.4°F25.2°C 68.8°F20.4°C 75% 0.5 mph S0.8 kmh S 2.0 mph3.2 kmh 29.99 in1015.6 mb 0.00 in0.0 mm 0.00 in0.0 mm 0.00 in0.0 mm
06:30 AM 77.8°F25.4°C 69.2°F20.7°C 75% 0.4 mph S0.6 kmh S 2.0 mph3.2 kmh 29.99 in1015.6 mb 0.00 in0.0 mm 0.00 in0.0 mm 0.00 in0.0 mm
06:35 AM 78.1°F25.6°C 69.1°F20.6°C 74% 0.5 mph S0.8 kmh S 2.0 mph3.2 kmh 29.99 in1015.6 mb 0.00 in0.0 mm 0.00 in0.0 mm 0.00 in0.0 mm
06:40 AM 78.5°F25.8°C 69.1°F20.6°C 73% 1.1 mph S1.8 kmh S 3.0 mph4.8 kmh 29.99 in1015.6 mb 0.00 in0.0 mm 0.00 in0.0 mm 0.00 in0.0 mm
06:45 AM 78.8°F26.0°C 69.4°F20.8°C 73% 1.5 mph SSW2.4 kmh SSW 4.0 mph6.4 kmh 29.99 in1015.6 mb 0.00 in0.0 mm 0.00 in0.0 mm 0.00 in0.0 mm
06:50 AM 79.2°F26.2°C 69.4°F20.8°C 72% 1.6 mph SW2.6 kmh SW 4.0 mph6.4 kmh 29.99 in1015.6 mb 0.00 in0.0 mm 0.00 in0.0 mm 0.00 in0.0 mm
06:55 AM 79.4°F26.3°C 69.6°F20.9°C 72% 1.2 mph SW1.9 kmh SW 4.0 mph6.4 kmh 29.99 in1015.6 mb 0.00 in0.0 mm 0.00 in0.0 mm 0.00 in0.0 mm
07:00 AM 79.7°F26.5°C 69.0°F20.6°C 70% 2.8 mph SW4.5 kmh SW 5.0 mph8.0 kmh 29.99 in1015.6 mb 0.00 in0.0 mm 0.00 in0.0 mm 0.00 in0.0 mm
07:05 AM 80.2°F26.8°C 69.5°F20.8°C 70% 1.8 mph SW2.9 kmh SW 5.0 mph8.0 kmh 29.99 in1015.6 mb 0.00 in0.0 mm 0.00 in0.0 mm 0.00 in0.0 mm
07:10 AM 80.3°F26.8°C 69.2°F20.7°C 69% 3.3 mph SW5.3 kmh SW 6.0 mph9.7 kmh 29.99 in1015.6 mb 0.00 in0.0 mm 0.00 in0.0 mm 0.00 in0.0 mm
07:15 AM 80.6°F27.0°C 69.5°F20.8°C 69% 2.2 mph SW3.5 kmh SW 6.0 mph9.7 kmh 29.99 in1015.6 mb 0.00 in0.0 mm 0.00 in0.0 mm 0.00 in0.0 mm
07:20 AM 81.0°F27.2°C 69.4°F20.8°C 68% 2.2 mph SW3.5 kmh SW 7.0 mph11.3 kmh 29.99 in1015.6 mb 0.00 in0.0 mm 0.00 in0.0 mm 0.00 in0.0 mm
07:25 AM 81.2°F27.3°C 69.6°F20.9°C 68% 2.9 mph SW4.7 kmh SW 7.0 mph11.3 kmh 30.00 in1015.9 mb 0.00 in0.0 mm 0.00 in0.0 mm 0.00 in0.0 mm
07:30 AM 81.5°F27.5°C 69.5°F20.8°C 67% 3.0 mph SW4.8 kmh SW 5.0 mph8.0 kmh 30.00 in1015.9 mb 0.00 in0.0 mm 0.00 in0.0 mm 0.00 in0.0 mm
07:35 AM 81.9°F27.7°C 69.4°F20.8°C 66% 2.9 mph SW4.7 kmh SW 6.0 mph9.7 kmh 30.00 in1015.9 mb 0.00 in0.0 mm 0.00 in0.0 mm 0.00 in0.0 mm
07:40 AM 82.3°F27.9°C 69.3°F20.7°C 65% 3.7 mph SW6.0 kmh SW 6.0 mph9.7 kmh 30.00 in1015.9 mb 0.00 in0.0 mm 0.00 in0.0 mm 0.00 in0.0 mm
07:45 AM 82.8°F28.2°C 69.8°F21.0°C 65% 2.8 mph SW4.5 kmh SW 6.0 mph9.7 kmh 30.00 in1015.9 mb 0.00 in0.0 mm 0.00 in0.0 mm 0.00 in0.0 mm
07:50 AM 83.3°F28.5°C 69.4°F20.8°C 63% 1.9 mph WSW3.1 kmh WSW 5.0 mph8.0 kmh 30.00 in1015.9 mb 0.00 in0.0 mm 0.00 in0.0 mm 0.00 in0.0 mm
07:55 AM 83.6°F28.7°C 69.6°F20.9°C 63% 3.1 mph WSW5.0 kmh WSW 6.0 mph9.7 kmh 30.01 in1016.3 mb 0.00 in0.0 mm 0.00 in0.0 mm 0.00 in0.0 mm
08:00 AM 83.9°F28.8°C 69.0°F20.6°C 61% 2.8 mph WSW4.5 kmh WSW 6.0 mph9.7 kmh 30.01 in1016.3 mb 0.00 in0.0 mm 0.00 in0.0 mm 0.00 in0.0 mm
08:05 AM 84.1°F28.9°C 69.2°F20.7°C 61% 4.0 mph SW6.4 kmh SW 6.0 mph9.7 kmh 30.01 in1016.3 mb 0.00 in0.0 mm 0.00 in0.0 mm 0.00 in0.0 mm
08:10 AM 84.3°F29.1°C 69.4°F20.8°C 61% 4.0 mph SW6.4 kmh SW 6.0 mph9.7 kmh 30.01 in1016.3 mb 0.00 in0.0 mm 0.00 in0.0 mm 0.00 in0.0 mm
08:15 AM 84.6°F29.2°C 69.2°F20.7°C 60% 3.7 mph SW6.0 kmh SW 7.0 mph11.3 kmh 30.01 in1016.3 mb 0.00 in0.0 mm 0.00 in0.0 mm 0.00 in0.0 mm
08:20 AM 84.9°F29.4°C 69.4°F20.8°C 60% 3.5 mph WSW5.6 kmh WSW 7.0 mph11.3 kmh 30.01 in1016.3 mb 0.00 in0.0 mm 0.00 in0.0 mm 0.00 in0.0 mm
08:25 AM 85.3°F29.6°C 69.3°F20.7°C 59% 3.3 mph W5.3 kmh W 7.0 mph11.3 kmh 30.01 in1016.3 mb 0.00 in0.0 mm 0.00 in0.0 mm 0.00 in0.0 mm
08:30 AM 85.7°F29.8°C 69.7°F20.9°C 59% 2.6 mph W4.2 kmh W 6.0 mph9.7 kmh 30.01 in1016.3 mb 0.00 in0.0 mm 0.00 in0.0 mm 0.00 in0.0 mm
08:35 AM 85.9°F29.9°C 69.4°F20.8°C 58% 3.1 mph WSW5.0 kmh WSW 6.0 mph9.7 kmh 30.01 in1016.3 mb 0.00 in0.0 mm 0.00 in0.0 mm 0.00 in0.0 mm
08:40 AM 86.5°F30.3°C 69.9°F21.1°C 58% 3.1 mph WSW5.0 kmh WSW 6.0 mph9.7 kmh 30.01 in1016.3 mb 0.00 in0.0 mm 0.00 in0.0 mm 0.00 in0.0 mm
08:45 AM 87.1°F30.6°C 69.5°F20.8°C 56% 3.4 mph W5.5 kmh W 8.0 mph12.9 kmh 30.01 in1016.3 mb 0.00 in0.0 mm 0.00 in0.0 mm 0.00 in0.0 mm
08:50 AM 87.5°F30.8°C 69.3°F20.7°C 55% 3.7 mph W6.0 kmh W 9.0 mph14.5 kmh 30.00 in1015.9 mb 0.00 in0.0 mm 0.00 in0.0 mm 0.00 in0.0 mm
08:55 AM 88.1°F31.2°C 71.4°F21.9°C 58% 3.1 mph WSW5.0 kmh WSW 9.0 mph14.5 kmh 30.00 in1015.9 mb 0.00 in0.0 mm 0.00 in0.0 mm 0.00 in0.0 mm
09:00 AM 88.8°F31.6°C 70.5°F21.4°C 55% 3.6 mph W5.8 kmh W 8.0 mph12.9 kmh 30.00 in1015.9 mb 0.00 in0.0 mm 0.00 in0.0 mm 0.00 in0.0 mm
09:05 AM 89.1°F31.7°C 70.2°F21.2°C 54% 3.4 mph W5.5 kmh W 7.0 mph11.3 kmh 30.00 in1015.9 mb 0.00 in0.0 mm 0.00 in0.0 mm 0.00 in0.0 mm
09:10 AM 89.3°F31.8°C 69.3°F20.7°C 52% 3.6 mph W5.8 kmh W 6.0 mph9.7 kmh 30.00 in1015.9 mb 0.00 in0.0 mm 0.00 in0.0 mm 0.00 in0.0 mm
09:15 AM 90.0°F32.2°C 70.5°F21.4°C 53% 2.4 mph NW3.9 kmh NW 6.0 mph9.7 kmh 30.00 in1015.9 mb 0.00 in0.0 mm 0.00 in0.0 mm 0.00 in0.0 mm
09:20 AM 90.0°F32.2°C 68.8°F20.4°C 50% 4.2 mph NW6.8 kmh NW 7.0 mph11.3 kmh 30.00 in1015.9 mb 0.00 in0.0 mm 0.00 in0.0 mm 0.00 in0.0 mm
09:25 AM 90.1°F32.3°C 69.5°F20.8°C 51% 4.8 mph WNW7.7 kmh WNW 9.0 mph14.5 kmh 30.00 in1015.9 mb 0.00 in0.0 mm 0.00 in0.0 mm 0.00 in0.0 mm
09:30 AM 90.4°F32.4°C 68.0°F20.0°C 48% 4.8 mph W7.7 kmh W 9.0 mph14.5 kmh 30.00 in1015.9 mb 0.00 in0.0 mm 0.00 in0.0 mm 0.00 in0.0 mm
09:35 AM 90.7°F32.6°C 69.5°F20.8°C 50% 4.0 mph W6.4 kmh W 9.0 mph14.5 kmh 29.99 in1015.6 mb 0.00 in0.0 mm 0.00 in0.0 mm 0.00 in0.0 mm
09:40 AM 90.9°F32.7°C 69.6°F20.9°C 50% 4.2 mph WNW6.8 kmh WNW 9.0 mph14.5 kmh 29.99 in1015.6 mb 0.00 in0.0 mm 0.00 in0.0 mm 0.00 in0.0 mm
09:45 AM 90.9°F32.7°C 68.5°F20.3°C 48% 4.8 mph NNW7.7 kmh NNW 9.0 mph14.5 kmh 29.99 in1015.6 mb 0.00 in0.0 mm 0.00 in0.0 mm 0.00 in0.0 mm
09:50 AM 91.0°F32.8°C 68.5°F20.3°C 48% 4.7 mph NW7.6 kmh NW 9.0 mph14.5 kmh 29.99 in1015.6 mb 0.00 in0.0 mm 0.00 in0.0 mm 0.00 in0.0 mm
09:55 AM 91.1°F32.8°C 68.0°F20.0°C 47% 4.5 mph W7.2 kmh W 9.0 mph14.5 kmh 29.99 in1015.6 mb 0.00 in0.0 mm 0.00 in0.0 mm 0.00 in0.0 mm
10:00 AM 91.1°F32.8°C 69.2°F20.7°C 49% 4.7 mph W7.6 kmh W 8.0 mph12.9 kmh 29.99 in1015.6 mb 0.00 in0.0 mm 0.00 in0.0 mm 0.00 in0.0 mm
10:05 AM 91.5°F33.1°C 68.4°F20.2°C 47% 4.6 mph NW7.4 kmh NW 8.0 mph12.9 kmh 29.99 in1015.6 mb 0.00 in0.0 mm 0.00 in0.0 mm 0.00 in0.0 mm
10:10 AM 91.7°F33.2°C 69.2°F20.7°C 48% 4.6 mph NW7.4 kmh NW 8.0 mph12.9 kmh 29.99 in1015.6 mb 0.00 in0.0 mm 0.00 in0.0 mm 0.00 in0.0 mm
10:15 AM 91.6°F33.1°C 67.8°F19.9°C 46% 4.7 mph WNW7.6 kmh WNW 8.0 mph12.9 kmh 29.99 in1015.6 mb 0.00 in0.0 mm 0.00 in0.0 mm 0.00 in0.0 mm
10:20 AM 92.4°F33.6°C 69.2°F20.7°C 47% 3.3 mph NW5.3 kmh NW 8.0 mph12.9 kmh 29.99 in1015.6 mb 0.00 in0.0 mm 0.00 in0.0 mm 0.00 in0.0 mm
10:25 AM 93.2°F34.0°C 68.0°F20.0°C 44% 3.8 mph NW6.1 kmh NW 7.0 mph11.3 kmh 29.99 in1015.6 mb 0.00 in0.0 mm 0.00 in0.0 mm 0.00 in0.0 mm
10:30 AM 93.4°F34.1°C 68.2°F20.1°C 44% 4.4 mph NNW7.1 kmh NNW 9.0 mph14.5 kmh 29.99 in1015.6 mb 0.00 in0.0 mm 0.00 in0.0 mm 0.00 in0.0 mm
10:35 AM 93.0°F33.9°C 67.1°F19.5°C 43% 4.6 mph NNW7.4 kmh NNW 9.0 mph14.5 kmh 29.98 in1015.2 mb 0.00 in0.0 mm 0.00 in0.0 mm 0.00 in0.0 mm
10:40 AM 93.1°F33.9°C 67.9°F19.9°C 44% 4.5 mph NNW7.2 kmh NNW 9.0 mph14.5 kmh 29.98 in1015.2 mb 0.00 in0.0 mm 0.00 in0.0 mm 0.00 in0.0 mm
10:45 AM 93.5°F34.2°C 67.6°F19.8°C 43% 3.3 mph NNW5.3 kmh NNW 8.0 mph12.9 kmh 29.98 in1015.2 mb 0.00 in0.0 mm 0.00 in0.0 mm 0.00 in0.0 mm
10:50 AM 93.8°F34.3°C 66.5°F19.2°C 41% 3.6 mph NW5.8 kmh NW 8.0 mph12.9 kmh 29.98 in1015.2 mb 0.00 in0.0 mm 0.00 in0.0 mm 0.00 in0.0 mm
10:55 AM 93.8°F34.3°C 66.5°F19.2°C 41% 4.4 mph W7.1 kmh W 8.0 mph12.9 kmh 29.98 in1015.2 mb 0.00 in0.0 mm 0.00 in0.0 mm 0.00 in0.0 mm
11:00 AM 93.7°F34.3°C 66.4°F19.1°C 41% 3.2 mph NW5.1 kmh NW 8.0 mph12.9 kmh 29.98 in1015.2 mb 0.00 in0.0 mm 0.00 in0.0 mm 0.00 in0.0 mm
11:05 AM 93.7°F34.3°C 67.1°F19.5°C 42% 2.4 mph NW3.9 kmh NW 6.0 mph9.7 kmh 29.98 in1015.2 mb 0.00 in0.0 mm 0.00 in0.0 mm 0.00 in0.0 mm
11:10 AM 93.9°F34.4°C 65.1°F18.4°C 39% 4.2 mph WNW6.8 kmh WNW 7.0 mph11.3 kmh 29.98 in1015.2 mb 0.00 in0.0 mm 0.00 in0.0 mm 0.00 in0.0 mm
11:15 AM 94.6°F34.8°C 66.5°F19.2°C 40% 2.5 mph N4.0 kmh N 7.0 mph11.3 kmh 29.98 in1015.2 mb 0.00 in0.0 mm 0.00 in0.0 mm 0.00 in0.0 mm
11:20 AM 94.6°F34.8°C 65.7°F18.7°C 39% 3.5 mph NW5.6 kmh NW 7.0 mph11.3 kmh 29.98 in1015.2 mb 0.00 in0.0 mm 0.00 in0.0 mm 0.00 in0.0 mm
11:25 AM 95.3°F35.2°C 67.1°F19.5°C 40% 2.8 mph N4.5 kmh N 7.0 mph11.3 kmh 29.98 in1015.2 mb 0.00 in0.0 mm 0.00 in0.0 mm 0.00 in0.0 mm
11:30 AM 95.0°F35.0°C 66.1°F18.9°C 39% 3.5 mph NW5.6 kmh NW 7.0 mph11.3 kmh 29.98 in1015.2 mb 0.00 in0.0 mm 0.00 in0.0 mm 0.00 in0.0 mm
11:35 AM 94.8°F34.9°C 67.4°F19.7°C 41% 2.7 mph NW4.3 kmh NW 8.0 mph12.9 kmh 29.97 in1014.9 mb 0.00 in0.0 mm 0.00 in0.0 mm 0.00 in0.0 mm
11:40 AM 95.1°F35.1°C 66.9°F19.4°C 40% 2.3 mph NW3.7 kmh NW 8.0 mph12.9 kmh 29.97 in1014.9 mb 0.00 in0.0 mm 0.00 in0.0 mm 0.00 in0.0 mm
11:45 AM 95.0°F35.0°C 65.4°F18.6°C 38% 3.4 mph NW5.5 kmh NW 7.0 mph11.3 kmh 29.98 in1015.2 mb 0.00 in0.0 mm 0.00 in0.0 mm 0.00 in0.0 mm
11:50 AM 95.8°F35.4°C 65.3°F18.5°C 37% 2.8 mph NW4.5 kmh NW 7.0 mph11.3 kmh 29.97 in1014.9 mb 0.00 in0.0 mm 0.00 in0.0 mm 0.00 in0.0 mm
11:55 AM 95.5°F35.3°C 65.8°F18.8°C 38% 1.7 mph NE2.7 kmh NE 6.0 mph9.7 kmh 29.97 in1014.9 mb 0.00 in0.0 mm 0.00 in0.0 mm 0.00 in0.0 mm
12:00 PM 96.0°F35.6°C 67.7°F19.8°C 40% 1.7 mph E2.7 kmh E 6.0 mph9.7 kmh 29.97 in1014.9 mb 0.00 in0.0 mm 0.00 in0.0 mm 0.00 in0.0 mm
12:05 PM 95.3°F35.2°C 64.9°F18.3°C 37% 4.0 mph NW6.4 kmh NW 9.0 mph14.5 kmh 29.97 in1014.9 mb 0.00 in0.0 mm 0.00 in0.0 mm 0.00 in0.0 mm
12:10 PM 95.3°F35.2°C 65.6°F18.7°C 38% 2.8 mph NNW4.5 kmh NNW 9.0 mph14.5 kmh 29.97 in1014.9 mb 0.00 in0.0 mm 0.00 in0.0 mm 0.00 in0.0 mm
12:15 PM 95.3°F35.2°C 67.1°F19.5°C 40% 2.3 mph NE3.7 kmh NE 7.0 mph11.3 kmh 29.96 in1014.6 mb 0.00 in0.0 mm 0.00 in0.0 mm 0.00 in0.0 mm
12:20 PM 95.7°F35.4°C 65.2°F18.4°C 37% 3.3 mph W5.3 kmh W 7.0 mph11.3 kmh 29.96 in1014.6 mb 0.00 in0.0 mm 0.00 in0.0 mm 0.00 in0.0 mm
12:25 PM 95.7°F35.4°C 65.2°F18.4°C 37% 4.2 mph NW6.8 kmh NW 8.0 mph12.9 kmh 29.96 in1014.6 mb 0.00 in0.0 mm 0.00 in0.0 mm 0.00 in0.0 mm
12:30 PM 95.7°F35.4°C 64.4°F18.0°C 36% 2.0 mph NW3.2 kmh NW 8.0 mph12.9 kmh 29.96 in1014.6 mb 0.00 in0.0 mm 0.00 in0.0 mm 0.00 in0.0 mm
12:35 PM 96.8°F36.0°C 64.6°F18.1°C 35% 4.2 mph NW6.8 kmh NW 9.0 mph14.5 kmh 29.96 in1014.6 mb 0.00 in0.0 mm 0.00 in0.0 mm 0.00 in0.0 mm
12:40 PM 96.6°F35.9°C 64.4°F18.0°C 35% 3.1 mph N5.0 kmh N 9.0 mph14.5 kmh 29.96 in1014.6 mb 0.00 in0.0 mm 0.00 in0.0 mm 0.00 in0.0 mm
12:45 PM 97.1°F36.2°C 65.6°F18.7°C 36% 2.3 mph NNW3.7 kmh NNW 7.0 mph11.3 kmh 29.96 in1014.6 mb 0.00 in0.0 mm 0.00 in0.0 mm 0.00 in0.0 mm
12:50 PM 97.6°F36.4°C 64.4°F18.0°C 34% 1.5 mph N2.4 kmh N 5.0 mph8.0 kmh 29.95 in1014.2 mb 0.00 in0.0 mm 0.00 in0.0 mm 0.00 in0.0 mm
12:55 PM 97.2°F36.2°C 64.9°F18.3°C 35% 2.2 mph N3.5 kmh N 6.0 mph9.7 kmh 29.95 in1014.2 mb 0.00 in0.0 mm 0.00 in0.0 mm 0.00 in0.0 mm
01:00 PM 97.6°F36.4°C 64.4°F18.0°C 34% 3.1 mph NNW5.0 kmh NNW 7.0 mph11.3 kmh 29.95 in1014.2 mb 0.00 in0.0 mm 0.00 in0.0 mm 0.00 in0.0 mm
01:05 PM 97.6°F36.4°C 63.6°F17.6°C 33% 2.2 mph N3.5 kmh N 7.0 mph11.3 kmh 29.95 in1014.2 mb 0.00 in0.0 mm 0.00 in0.0 mm 0.00 in0.0 mm
01:10 PM 98.1°F36.7°C 63.1°F17.3°C 32% 2.3 mph N3.7 kmh N 6.0 mph9.7 kmh 29.95 in1014.2 mb 0.00 in0.0 mm 0.00 in0.0 mm 0.00 in0.0 mm
01:15 PM 98.2°F36.8°C 62.3°F16.8°C 31% 2.8 mph N4.5 kmh N 6.0 mph9.7 kmh 29.95 in1014.2 mb 0.00 in0.0 mm 0.00 in0.0 mm 0.00 in0.0 mm
01:20 PM 97.8°F36.6°C 64.6°F18.1°C 34% 3.2 mph N5.1 kmh N 6.0 mph9.7 kmh 29.95 in1014.2 mb 0.00 in0.0 mm 0.00 in0.0 mm 0.00 in0.0 mm
01:25 PM 97.4°F36.3°C 65.1°F18.4°C 35% 2.0 mph NNW3.2 kmh NNW 6.0 mph9.7 kmh 29.95 in1014.2 mb 0.00 in0.0 mm 0.00 in0.0 mm 0.00 in0.0 mm
01:30 PM 98.3°F36.8°C 66.7°F19.3°C 36% 1.6 mph SE2.6 kmh SE 7.0 mph11.3 kmh 29.95 in1014.2 mb 0.00 in0.0 mm 0.00 in0.0 mm 0.00 in0.0 mm
01:35 PM 97.5°F36.4°C 66.8°F19.3°C 37% 3.0 mph ESE4.8 kmh ESE 8.0 mph12.9 kmh 29.95 in1014.2 mb 0.00 in0.0 mm 0.00 in0.0 mm 0.00 in0.0 mm
01:40 PM 97.8°F36.6°C 67.8°F19.9°C 38% 2.8 mph SE4.5 kmh SE 8.0 mph12.9 kmh 29.95 in1014.2 mb 0.00 in0.0 mm 0.00 in0.0 mm 0.00 in0.0 mm
01:45 PM 97.4°F36.3°C 66.7°F19.3°C 37% 2.8 mph SE4.5 kmh SE 9.0 mph14.5 kmh 29.95 in1014.2 mb 0.00 in0.0 mm 0.00 in0.0 mm 0.00 in0.0 mm
01:50 PM 97.5°F36.4°C 66.8°F19.3°C 37% 1.6 mph E2.6 kmh E 9.0 mph14.5 kmh 29.94 in1013.9 mb 0.00 in0.0 mm 0.00 in0.0 mm 0.00 in0.0 mm
01:55 PM 97.8°F36.6°C 67.8°F19.9°C 38% 1.9 mph SE3.1 kmh SE 6.0 mph9.7 kmh 29.94 in1013.9 mb 0.00 in0.0 mm 0.00 in0.0 mm 0.00 in0.0 mm
02:00 PM 97.3°F36.3°C 66.6°F19.2°C 37% 2.5 mph E4.0 kmh E 9.0 mph14.5 kmh 29.94 in1013.9 mb 0.00 in0.0 mm 0.00 in0.0 mm 0.00 in0.0 mm
02:05 PM 97.7°F36.5°C 66.2°F19.0°C 36% 2.6 mph SE4.2 kmh SE 9.0 mph14.5 kmh 29.94 in1013.9 mb 0.00 in0.0 mm 0.00 in0.0 mm 0.00 in0.0 mm
02:10 PM 97.9°F36.6°C 66.3°F19.1°C 36% 2.3 mph NE3.7 kmh NE 7.0 mph11.3 kmh 29.93 in1013.5 mb 0.00 in0.0 mm 0.00 in0.0 mm 0.00 in0.0 mm
02:15 PM 97.7°F36.5°C 67.0°F19.4°C 37% 1.8 mph E2.9 kmh E 6.0 mph9.7 kmh 29.93 in1013.5 mb 0.00 in0.0 mm 0.00 in0.0 mm 0.00 in0.0 mm
02:20 PM 97.8°F36.6°C 66.3°F19.1°C 36% 2.0 mph SE3.2 kmh SE 9.0 mph14.5 kmh 29.93 in1013.5 mb 0.00 in0.0 mm 0.00 in0.0 mm 0.00 in0.0 mm
02:25 PM 97.7°F36.5°C 67.0°F19.4°C 37% 2.4 mph ESE3.9 kmh ESE 9.0 mph14.5 kmh 29.93 in1013.5 mb 0.00 in0.0 mm 0.00 in0.0 mm 0.00 in0.0 mm
02:30 PM 98.0°F36.7°C 66.4°F19.1°C 36% 2.3 mph ENE3.7 kmh ENE 8.0 mph12.9 kmh 29.93 in1013.5 mb 0.00 in0.0 mm 0.00 in0.0 mm 0.00 in0.0 mm
02:35 PM 97.9°F36.6°C 67.1°F19.5°C 37% 1.9 mph E3.1 kmh E 7.0 mph11.3 kmh 29.92 in1013.2 mb 0.00 in0.0 mm 0.00 in0.0 mm 0.00 in0.0 mm
02:40 PM 98.6°F37.0°C 67.0°F19.4°C 36% 2.1 mph NNE3.4 kmh NNE 8.0 mph12.9 kmh 29.92 in1013.2 mb 0.00 in0.0 mm 0.00 in0.0 mm 0.00 in0.0 mm
02:45 PM 98.3°F36.8°C 66.7°F19.3°C 36% 2.4 mph ENE3.9 kmh ENE 8.0 mph12.9 kmh 29.92 in1013.2 mb 0.00 in0.0 mm 0.00 in0.0 mm 0.00 in0.0 mm
02:50 PM 98.7°F37.1°C 68.6°F20.3°C 38% 1.8 mph E2.9 kmh E 7.0 mph11.3 kmh 29.92 in1013.2 mb 0.00 in0.0 mm 0.00 in0.0 mm 0.00 in0.0 mm
02:55 PM 98.4°F36.9°C 67.6°F19.8°C 37% 1.9 mph ENE3.1 kmh ENE 5.0 mph8.0 kmh 29.92 in1013.2 mb 0.00 in0.0 mm 0.00 in0.0 mm 0.00 in0.0 mm
03:00 PM 97.9°F36.6°C 66.3°F19.1°C 36% 1.1 mph NE1.8 kmh NE 5.0 mph8.0 kmh 29.92 in1013.2 mb 0.00 in0.0 mm 0.00 in0.0 mm 0.00 in0.0 mm
03:05 PM 98.0°F36.7°C 67.2°F19.6°C 37% 2.3 mph ENE3.7 kmh ENE 7.0 mph11.3 kmh 29.91 in1012.9 mb 0.00 in0.0 mm 0.00 in0.0 mm 0.00 in0.0 mm
03:10 PM 97.9°F36.6°C 67.1°F19.5°C 37% 1.7 mph SE2.7 kmh SE 7.0 mph11.3 kmh 29.91 in1012.9 mb 0.00 in0.0 mm 0.00 in0.0 mm 0.00 in0.0 mm
03:15 PM 98.2°F36.8°C 68.2°F20.1°C 38% 1.3 mph E2.1 kmh E 5.0 mph8.0 kmh 29.91 in1012.9 mb 0.00 in0.0 mm 0.00 in0.0 mm 0.00 in0.0 mm
03:20 PM 97.8°F36.6°C 67.8°F19.9°C 38% 1.5 mph E2.4 kmh E 5.0 mph8.0 kmh 29.91 in1012.9 mb 0.00 in0.0 mm 0.00 in0.0 mm 0.00 in0.0 mm
03:25 PM 97.9°F36.6°C 67.1°F19.5°C 37% 2.5 mph E4.0 kmh E 8.0 mph12.9 kmh 29.91 in1012.9 mb 0.00 in0.0 mm 0.00 in0.0 mm 0.00 in0.0 mm
03:30 PM 98.4°F36.9°C 67.6°F19.8°C 37% 2.1 mph NNE3.4 kmh NNE 8.0 mph12.9 kmh 29.91 in1012.9 mb 0.00 in0.0 mm 0.00 in0.0 mm 0.00 in0.0 mm
03:35 PM 98.6°F37.0°C 67.8°F19.9°C 37% 1.1 mph ENE1.8 kmh ENE 6.0 mph9.7 kmh 29.90 in1012.5 mb 0.00 in0.0 mm 0.00 in0.0 mm 0.00 in0.0 mm
03:40 PM 98.5°F36.9°C 68.4°F20.2°C 38% 2.8 mph NNE4.5 kmh NNE 9.0 mph14.5 kmh 29.90 in1012.5 mb 0.00 in0.0 mm 0.00 in0.0 mm 0.00 in0.0 mm
03:45 PM 98.7°F37.1°C 68.6°F20.3°C 38% 1.7 mph NE2.7 kmh NE 9.0 mph14.5 kmh 29.90 in1012.5 mb 0.00 in0.0 mm 0.00 in0.0 mm 0.00 in0.0 mm
03:50 PM 98.8°F37.1°C 67.1°F19.5°C 36% 1.9 mph NE3.1 kmh NE 7.0 mph11.3 kmh 29.90 in1012.5 mb 0.00 in0.0 mm 0.00 in0.0 mm 0.00 in0.0 mm
03:55 PM 98.4°F36.9°C 67.6°F19.8°C 37% 2.5 mph NNE4.0 kmh NNE 7.0 mph11.3 kmh 29.90 in1012.5 mb 0.00 in0.0 mm 0.00 in0.0 mm 0.00 in0.0 mm
04:00 PM 97.7°F36.5°C 67.0°F19.4°C 37% 1.7 mph E2.7 kmh E 7.0 mph11.3 kmh 29.90 in1012.5 mb 0.00 in0.0 mm 0.00 in0.0 mm 0.00 in0.0 mm
04:05 PM 98.0°F36.7°C 68.0°F20.0°C 38% 1.8 mph ENE2.9 kmh ENE 6.0 mph9.7 kmh 29.90 in1012.5 mb 0.00 in0.0 mm 0.00 in0.0 mm 0.00 in0.0 mm
04:10 PM 97.7°F36.5°C 67.0°F19.4°C 37% 2.2 mph E3.5 kmh E 7.0 mph11.3 kmh 29.90 in1012.5 mb 0.00 in0.0 mm 0.00 in0.0 mm 0.00 in0.0 mm
04:15 PM 97.9°F36.6°C 67.1°F19.5°C 37% 2.2 mph ENE3.5 kmh ENE 8.0 mph12.9 kmh 29.90 in1012.5 mb 0.00 in0.0 mm 0.00 in0.0 mm 0.00 in0.0 mm
04:20 PM 97.9°F36.6°C 66.3°F19.1°C 36% 2.2 mph E3.5 kmh E 8.0 mph12.9 kmh 29.90 in1012.5 mb 0.00 in0.0 mm 0.00 in0.0 mm 0.00 in0.0 mm
04:25 PM 98.0°F36.7°C 66.4°F19.1°C 36% 1.8 mph NE2.9 kmh NE 5.0 mph8.0 kmh 29.90 in1012.5 mb 0.00 in0.0 mm 0.00 in0.0 mm 0.00 in0.0 mm
04:30 PM 98.0°F36.7°C 66.4°F19.1°C 36% 1.9 mph NE3.1 kmh NE 5.0 mph8.0 kmh 29.90 in1012.5 mb 0.00 in0.0 mm 0.00 in0.0 mm 0.00 in0.0 mm
04:35 PM 98.0°F36.7°C 67.2°F19.6°C 37% 1.6 mph NE2.6 kmh NE 5.0 mph8.0 kmh 29.90 in1012.5 mb 0.00 in0.0 mm 0.00 in0.0 mm 0.00 in0.0 mm
04:40 PM 97.8°F36.6°C 66.3°F19.1°C 36% 2.4 mph ENE3.9 kmh ENE 7.0 mph11.3 kmh 29.90 in1012.5 mb 0.00 in0.0 mm 0.00 in0.0 mm 0.00 in0.0 mm
04:45 PM 97.7°F36.5°C 66.2°F19.0°C 36% 2.0 mph ENE3.2 kmh ENE 7.0 mph11.3 kmh 29.90 in1012.5 mb 0.00 in0.0 mm 0.00 in0.0 mm 0.00 in0.0 mm
04:50 PM 97.6°F36.4°C 65.3°F18.5°C 35% 2.0 mph E3.2 kmh E 7.0 mph11.3 kmh 29.89 in1012.2 mb 0.00 in0.0 mm 0.00 in0.0 mm 0.00 in0.0 mm
04:55 PM 97.7°F36.5°C 66.2°F19.0°C 36% 2.0 mph ENE3.2 kmh ENE 9.0 mph14.5 kmh 29.89 in1012.2 mb 0.00 in0.0 mm 0.00 in0.0 mm 0.00 in0.0 mm
05:00 PM 97.6°F36.4°C 66.1°F18.9°C 36% 1.7 mph ENE2.7 kmh ENE 9.0 mph14.5 kmh 29.89 in1012.2 mb 0.00 in0.0 mm 0.00 in0.0 mm 0.00 in0.0 mm
05:05 PM 97.6°F36.4°C 66.1°F18.9°C 36% 2.2 mph NNE3.5 kmh NNE 6.0 mph9.7 kmh 29.90 in1012.5 mb 0.00 in0.0 mm 0.00 in0.0 mm 0.00 in0.0 mm
05:10 PM 97.7°F36.5°C 66.2°F19.0°C 36% 1.4 mph NE2.3 kmh NE 6.0 mph9.7 kmh 29.90 in1012.5 mb 0.00 in0.0 mm 0.00 in0.0 mm 0.00 in0.0 mm
05:15 PM 97.9°F36.6°C 67.1°F19.5°C 37% 1.0 mph ENE1.6 kmh ENE 5.0 mph8.0 kmh 29.90 in1012.5 mb 0.00 in0.0 mm 0.00 in0.0 mm 0.00 in0.0 mm
05:20 PM 97.5°F36.4°C 65.2°F18.4°C 35% 1.0 mph ENE1.6 kmh ENE 3.0 mph4.8 kmh 29.90 in1012.5 mb 0.00 in0.0 mm 0.00 in0.0 mm 0.00 in0.0 mm
05:25 PM 97.6°F36.4°C 65.3°F18.5°C 35% 1.1 mph ENE1.8 kmh ENE 3.0 mph4.8 kmh 29.90 in1012.5 mb 0.00 in0.0 mm 0.00 in0.0 mm 0.00 in0.0 mm
05:30 PM 97.3°F36.3°C 65.8°F18.8°C 36% 1.6 mph NE2.6 kmh NE 5.0 mph8.0 kmh 29.90 in1012.5 mb 0.00 in0.0 mm 0.00 in0.0 mm 0.00 in0.0 mm
05:35 PM 97.3°F36.3°C 64.2°F17.9°C 34% 1.2 mph NE1.9 kmh NE 5.0 mph8.0 kmh 29.90 in1012.5 mb 0.00 in0.0 mm 0.00 in0.0 mm 0.00 in0.0 mm
05:40 PM 97.2°F36.2°C 64.9°F18.3°C 35% 1.7 mph NE2.7 kmh NE 6.0 mph9.7 kmh 29.90 in1012.5 mb 0.00 in0.0 mm 0.00 in0.0 mm 0.00 in0.0 mm
05:45 PM 97.0°F36.1°C 64.7°F18.2°C 35% 1.6 mph ENE2.6 kmh ENE 6.0 mph9.7 kmh 29.90 in1012.5 mb 0.00 in0.0 mm 0.00 in0.0 mm 0.00 in0.0 mm
05:50 PM 96.9°F36.1°C 64.7°F18.2°C 35% 1.3 mph ENE2.1 kmh ENE 5.0 mph8.0 kmh 29.90 in1012.5 mb 0.00 in0.0 mm 0.00 in0.0 mm 0.00 in0.0 mm
05:55 PM 96.6°F35.9°C 64.4°F18.0°C 35% 1.7 mph NE2.7 kmh NE 5.0 mph8.0 kmh 29.90 in1012.5 mb 0.00 in0.0 mm 0.00 in0.0 mm 0.00 in0.0 mm
06:00 PM 96.5°F35.8°C 65.1°F18.4°C 36% 1.1 mph E1.8 kmh E 4.0 mph6.4 kmh 29.91 in1012.9 mb 0.00 in0.0 mm 0.00 in0.0 mm 0.00 in0.0 mm
06:05 PM 96.4°F35.8°C 65.0°F18.3°C 36% 1.5 mph ENE2.4 kmh ENE 5.0 mph8.0 kmh 29.91 in1012.9 mb 0.00 in0.0 mm 0.00 in0.0 mm 0.00 in0.0 mm
06:10 PM 96.3°F35.7°C 64.9°F18.3°C 36% 1.4 mph NE2.3 kmh NE 5.0 mph8.0 kmh 29.91 in1012.9 mb 0.00 in0.0 mm 0.00 in0.0 mm 0.00 in0.0 mm
06:15 PM 96.1°F35.6°C 64.8°F18.2°C 36% 1.7 mph ENE2.7 kmh ENE 5.0 mph8.0 kmh 29.91 in1012.9 mb 0.00 in0.0 mm 0.00 in0.0 mm 0.00 in0.0 mm
06:20 PM 95.7°F35.4°C 66.0°F18.9°C 38% 1.2 mph ESE1.9 kmh ESE 5.0 mph8.0 kmh 29.91 in1012.9 mb 0.00 in0.0 mm 0.00 in0.0 mm 0.00 in0.0 mm
06:25 PM 95.5°F35.3°C 65.8°F18.8°C 38% 1.2 mph ENE1.9 kmh ENE 5.0 mph8.0 kmh 29.91 in1012.9 mb 0.00 in0.0 mm 0.00 in0.0 mm 0.00 in0.0 mm
06:30 PM 95.1°F35.1°C 66.2°F19.0°C 39% 1.6 mph E2.6 kmh E 5.0 mph8.0 kmh 29.91 in1012.9 mb 0.00 in0.0 mm 0.00 in0.0 mm 0.00 in0.0 mm
06:35 PM 94.9°F34.9°C 66.0°F18.9°C 39% 1.5 mph E2.4 kmh E 4.0 mph6.4 kmh 29.91 in1012.9 mb 0.00 in0.0 mm 0.00 in0.0 mm 0.00 in0.0 mm
06:40 PM 94.6°F34.8°C 66.5°F19.2°C 40% 2.2 mph SE3.5 kmh SE 4.0 mph6.4 kmh 29.92 in1013.2 mb 0.00 in0.0 mm 0.00 in0.0 mm 0.00 in0.0 mm
06:45 PM 94.2°F34.6°C 66.8°F19.3°C 41% 1.8 mph ESE2.9 kmh ESE 5.0 mph8.0 kmh 29.92 in1013.2 mb 0.00 in0.0 mm 0.00 in0.0 mm 0.00 in0.0 mm
06:50 PM 93.8°F34.3°C 66.5°F19.2°C 41% 1.5 mph SE2.4 kmh SE 5.0 mph8.0 kmh 29.92 in1013.2 mb 0.00 in0.0 mm 0.00 in0.0 mm 0.00 in0.0 mm
06:55 PM 93.5°F34.2°C 67.6°F19.8°C 43% 1.6 mph ESE2.6 kmh ESE 4.0 mph6.4 kmh 29.92 in1013.2 mb 0.00 in0.0 mm 0.00 in0.0 mm 0.00 in0.0 mm
07:00 PM 93.2°F34.0°C 67.3°F19.6°C 43% 1.8 mph SE2.9 kmh SE 6.0 mph9.7 kmh 29.93 in1013.5 mb 0.00 in0.0 mm 0.00 in0.0 mm 0.00 in0.0 mm
07:05 PM 92.9°F33.8°C 67.1°F19.5°C 43% 2.5 mph SE4.0 kmh SE 7.0 mph11.3 kmh 29.93 in1013.5 mb 0.00 in0.0 mm 0.00 in0.0 mm 0.00 in0.0 mm
07:10 PM 92.7°F33.7°C 66.9°F19.4°C 43% 2.0 mph SE3.2 kmh SE 7.0 mph11.3 kmh 29.93 in1013.5 mb 0.00 in0.0 mm 0.00 in0.0 mm 0.00 in0.0 mm
07:15 PM 92.2°F33.4°C 67.1°F19.5°C 44% 1.5 mph SE2.4 kmh SE 4.0 mph6.4 kmh 29.93 in1013.5 mb 0.00 in0.0 mm 0.00 in0.0 mm 0.00 in0.0 mm
07:20 PM 92.0°F33.3°C 66.9°F19.4°C 44% 1.9 mph SE3.1 kmh SE 6.0 mph9.7 kmh 29.94 in1013.9 mb 0.00 in0.0 mm 0.00 in0.0 mm 0.00 in0.0 mm
07:25 PM 91.9°F33.3°C 66.8°F19.3°C 44% 2.0 mph SE3.2 kmh SE 6.0 mph9.7 kmh 29.94 in1013.9 mb 0.00 in0.0 mm 0.00 in0.0 mm 0.00 in0.0 mm
07:30 PM 91.8°F33.2°C 66.1°F18.9°C 43% 2.9 mph SE4.7 kmh SE 8.0 mph12.9 kmh 29.94 in1013.9 mb 0.00 in0.0 mm 0.00 in0.0 mm 0.00 in0.0 mm
07:35 PM 91.7°F33.2°C 66.0°F18.9°C 43% 2.6 mph SE4.2 kmh SE 8.0 mph12.9 kmh 29.94 in1013.9 mb 0.00 in0.0 mm 0.00 in0.0 mm 0.00 in0.0 mm
07:40 PM 91.6°F33.1°C 66.6°F19.2°C 44% 2.6 mph SE4.2 kmh SE 8.0 mph12.9 kmh 29.94 in1013.9 mb 0.00 in0.0 mm 0.00 in0.0 mm 0.00 in0.0 mm
07:45 PM 91.6°F33.1°C 67.8°F19.9°C 46% 5.7 mph SE9.2 kmh SE 9.0 mph14.5 kmh 29.95 in1014.2 mb 0.00 in0.0 mm 0.00 in0.0 mm 0.00 in0.0 mm
07:50 PM 91.4°F33.0°C 68.9°F20.5°C 48% 4.8 mph SE7.7 kmh SE 9.0 mph14.5 kmh 29.95 in1014.2 mb 0.00 in0.0 mm 0.00 in0.0 mm 0.00 in0.0 mm
07:55 PM 91.1°F32.8°C 68.6°F20.3°C 48% 4.0 mph SE6.4 kmh SE 8.0 mph12.9 kmh 29.95 in1014.2 mb 0.00 in0.0 mm 0.00 in0.0 mm 0.00 in0.0 mm
08:00 PM 90.2°F32.3°C 67.2°F19.6°C 47% 4.7 mph SSE7.6 kmh SSE 10.0 mph16.1 kmh 29.95 in1014.2 mb 0.00 in0.0 mm 0.00 in0.0 mm 0.00 in0.0 mm
08:05 PM 89.6°F32.0°C 66.7°F19.3°C 47% 4.1 mph SSE6.6 kmh SSE 10.0 mph16.1 kmh 29.95 in1014.2 mb 0.00 in0.0 mm 0.00 in0.0 mm 0.00 in0.0 mm
08:10 PM 89.2°F31.8°C 66.9°F19.4°C 48% 2.9 mph SSE4.7 kmh SSE 7.0 mph11.3 kmh 29.96 in1014.6 mb 0.00 in0.0 mm 0.00 in0.0 mm 0.00 in0.0 mm
08:15 PM 88.9°F31.6°C 66.6°F19.2°C 48% 4.2 mph SSE6.8 kmh SSE 9.0 mph14.5 kmh 29.96 in1014.6 mb 0.00 in0.0 mm 0.00 in0.0 mm 0.00 in0.0 mm
08:20 PM 88.7°F31.5°C 66.4°F19.1°C 48% 2.8 mph SSE4.5 kmh SSE 9.0 mph14.5 kmh 29.96 in1014.6 mb 0.00 in0.0 mm 0.00 in0.0 mm 0.00 in0.0 mm
08:25 PM 88.4°F31.3°C 66.8°F19.3°C 49% 2.5 mph SSE4.0 kmh SSE 6.0 mph9.7 kmh 29.96 in1014.6 mb 0.00 in0.0 mm 0.00 in0.0 mm 0.00 in0.0 mm
08:30 PM 88.3°F31.3°C 66.1°F18.9°C 48% 3.9 mph SSE6.3 kmh SSE 6.0 mph9.7 kmh 29.96 in1014.6 mb 0.00 in0.0 mm 0.00 in0.0 mm 0.00 in0.0 mm
08:35 PM 88.2°F31.2°C 66.0°F18.9°C 48% 3.5 mph SSE5.6 kmh SSE 6.0 mph9.7 kmh 29.96 in1014.6 mb 0.00 in0.0 mm 0.00 in0.0 mm 0.00 in0.0 mm
08:40 PM 88.0°F31.1°C 66.4°F19.1°C 49% 3.8 mph SSE6.1 kmh SSE 6.0 mph9.7 kmh 29.96 in1014.6 mb 0.00 in0.0 mm 0.00 in0.0 mm 0.00 in0.0 mm
08:45 PM 87.6°F30.9°C 66.0°F18.9°C 49% 2.9 mph SSE4.7 kmh SSE 6.0 mph9.7 kmh 29.97 in1014.9 mb 0.00 in0.0 mm 0.00 in0.0 mm 0.00 in0.0 mm
08:50 PM 87.5°F30.8°C 67.1°F19.5°C 51% 4.6 mph SSE7.4 kmh SSE 9.0 mph14.5 kmh 29.97 in1014.9 mb 0.00 in0.0 mm 0.00 in0.0 mm 0.00 in0.0 mm
08:55 PM 87.4°F30.8°C 67.6°F19.8°C 52% 5.1 mph SSE8.2 kmh SSE 10.0 mph16.1 kmh 29.98 in1015.2 mb 0.00 in0.0 mm 0.00 in0.0 mm 0.00 in0.0 mm
09:00 PM 86.9°F30.5°C 67.7°F19.8°C 53% 4.4 mph SSE7.1 kmh SSE 10.0 mph16.1 kmh 29.98 in1015.2 mb 0.00 in0.0 mm 0.00 in0.0 mm 0.00 in0.0 mm
09:05 PM 86.5°F30.3°C 67.3°F19.6°C 53% 5.1 mph SSE8.2 kmh SSE 10.0 mph16.1 kmh 29.98 in1015.2 mb 0.00 in0.0 mm 0.00 in0.0 mm 0.00 in0.0 mm
09:10 PM 86.1°F30.1°C 66.4°F19.1°C 52% 4.6 mph SSE7.4 kmh SSE 10.0 mph16.1 kmh 29.98 in1015.2 mb 0.00 in0.0 mm 0.00 in0.0 mm 0.00 in0.0 mm
09:15 PM 85.8°F29.9°C 66.1°F18.9°C 52% 4.9 mph SSE7.9 kmh SSE 11.0 mph17.7 kmh 29.98 in1015.2 mb 0.00 in0.0 mm 0.00 in0.0 mm 0.00 in0.0 mm
09:20 PM 85.5°F29.7°C 65.3°F18.5°C 51% 4.3 mph SSE6.9 kmh SSE 11.0 mph17.7 kmh 29.98 in1015.2 mb 0.00 in0.0 mm 0.00 in0.0 mm 0.00 in0.0 mm
09:25 PM 85.3°F29.6°C 65.6°F18.7°C 52% 2.5 mph SSE4.0 kmh SSE 9.0 mph14.5 kmh 29.98 in1015.2 mb 0.00 in0.0 mm 0.00 in0.0 mm 0.00 in0.0 mm
09:30 PM 85.0°F29.4°C 65.4°F18.6°C 52% 2.6 mph SSE4.2 kmh SSE 8.0 mph12.9 kmh 29.98 in1015.2 mb 0.00 in0.0 mm 0.00 in0.0 mm 0.00 in0.0 mm
09:35 PM 84.9°F29.4°C 65.3°F18.5°C 52% 3.5 mph SSE5.6 kmh SSE 8.0 mph12.9 kmh 29.98 in1015.2 mb 0.00 in0.0 mm 0.00 in0.0 mm 0.00 in0.0 mm
09:40 PM 84.7°F29.3°C 65.6°F18.7°C 53% 3.8 mph S6.1 kmh S 7.0 mph11.3 kmh 29.98 in1015.2 mb 0.00 in0.0 mm 0.00 in0.0 mm 0.00 in0.0 mm
09:45 PM 84.4°F29.1°C 65.9°F18.8°C 54% 4.0 mph SSE6.4 kmh SSE 7.0 mph11.3 kmh 29.98 in1015.2 mb 0.00 in0.0 mm 0.00 in0.0 mm 0.00 in0.0 mm
09:50 PM 84.0°F28.9°C 66.1°F18.9°C 55% 3.0 mph SSE4.8 kmh SSE 7.0 mph11.3 kmh 29.98 in1015.2 mb 0.00 in0.0 mm 0.00 in0.0 mm 0.00 in0.0 mm
09:55 PM 83.6°F28.7°C 65.7°F18.7°C 55% 3.2 mph S5.1 kmh S 5.0 mph8.0 kmh 29.98 in1015.2 mb 0.00 in0.0 mm 0.00 in0.0 mm 0.00 in0.0 mm
10:00 PM 83.4°F28.6°C 66.0°F18.9°C 56% 1.9 mph S3.1 kmh S 5.0 mph8.0 kmh 29.98 in1015.2 mb 0.00 in0.0 mm 0.00 in0.0 mm 0.00 in0.0 mm
10:05 PM 83.1°F28.4°C 65.8°F18.8°C 56% 2.7 mph SSE4.3 kmh SSE 7.0 mph11.3 kmh 29.98 in1015.2 mb 0.00 in0.0 mm 0.00 in0.0 mm 0.00 in0.0 mm
10:10 PM 82.8°F28.2°C 66.0°F18.9°C 57% 1.5 mph SSE2.4 kmh SSE 7.0 mph11.3 kmh 29.98 in1015.2 mb 0.00 in0.0 mm 0.00 in0.0 mm 0.00 in0.0 mm
10:15 PM 82.6°F28.1°C 66.3°F19.1°C 58% 1.6 mph S2.6 kmh S 4.0 mph6.4 kmh 29.98 in1015.2 mb 0.00 in0.0 mm 0.00 in0.0 mm 0.00 in0.0 mm
10:20 PM 82.3°F27.9°C 66.0°F18.9°C 58% 1.5 mph SSW2.4 kmh SSW 5.0 mph8.0 kmh 29.98 in1015.2 mb 0.00 in0.0 mm 0.00 in0.0 mm 0.00 in0.0 mm
10:25 PM 82.3°F27.9°C 66.0°F18.9°C 58% 1.4 mph S2.3 kmh S 5.0 mph8.0 kmh 29.97 in1014.9 mb 0.00 in0.0 mm 0.00 in0.0 mm 0.00 in0.0 mm
10:30 PM 82.2°F27.9°C 65.9°F18.8°C 58% 2.0 mph SSW3.2 kmh SSW 5.0 mph8.0 kmh 29.97 in1014.9 mb 0.00 in0.0 mm 0.00 in0.0 mm 0.00 in0.0 mm
10:35 PM 82.1°F27.8°C 65.8°F18.8°C 58% 1.1 mph S1.8 kmh S 5.0 mph8.0 kmh 29.97 in1014.9 mb 0.00 in0.0 mm 0.00 in0.0 mm 0.00 in0.0 mm
10:40 PM 81.8°F27.7°C 66.0°F18.9°C 59% 0.2 mph S0.3 kmh S 4.0 mph6.4 kmh 29.97 in1014.9 mb 0.00 in0.0 mm 0.00 in0.0 mm 0.00 in0.0 mm
10:45 PM 81.8°F27.7°C 66.0°F18.9°C 59% 0.9 mph SSE1.4 kmh SSE 3.0 mph4.8 kmh 29.97 in1014.9 mb 0.00 in0.0 mm 0.00 in0.0 mm 0.00 in0.0 mm
10:50 PM 81.8°F27.7°C 66.0°F18.9°C 59% 0.3 mph S0.5 kmh S 2.0 mph3.2 kmh 29.97 in1014.9 mb 0.00 in0.0 mm 0.00 in0.0 mm 0.00 in0.0 mm
10:55 PM 81.7°F27.6°C 66.0°F18.9°C 59% 0.7 mph SSW1.1 kmh SSW 3.0 mph4.8 kmh 29.97 in1014.9 mb 0.00 in0.0 mm 0.00 in0.0 mm 0.00 in0.0 mm
11:00 PM 81.5°F27.5°C 66.2°F19.0°C 60% 0.2 mph SSW0.3 kmh SSW 3.0 mph4.8 kmh 29.97 in1014.9 mb 0.00 in0.0 mm 0.00 in0.0 mm 0.00 in0.0 mm
11:05 PM 81.5°F27.5°C 66.2°F19.0°C 60% 1.1 mph SSW1.8 kmh SSW 3.0 mph4.8 kmh 29.97 in1014.9 mb 0.00 in0.0 mm 0.00 in0.0 mm 0.00 in0.0 mm
11:10 PM 81.5°F27.5°C 66.2°F19.0°C 60% 0.8 mph SSW1.3 kmh SSW 3.0 mph4.8 kmh 29.98 in1015.2 mb 0.00 in0.0 mm 0.00 in0.0 mm 0.00 in0.0 mm
11:15 PM 81.4°F27.4°C 66.2°F19.0°C 60% 0.8 mph S1.3 kmh S 2.0 mph3.2 kmh 29.98 in1015.2 mb 0.00 in0.0 mm 0.00 in0.0 mm 0.00 in0.0 mm
11:20 PM 81.2°F27.3°C 66.0°F18.9°C 60% 0.7 mph SSW1.1 kmh SSW 3.0 mph4.8 kmh 29.98 in1015.2 mb 0.00 in0.0 mm 0.00 in0.0 mm 0.00 in0.0 mm
11:25 PM 81.3°F27.4°C 66.1°F18.9°C 60% 0.8 mph SSE1.3 kmh SSE 3.0 mph4.8 kmh 29.98 in1015.2 mb 0.00 in0.0 mm 0.00 in0.0 mm 0.00 in0.0 mm
11:30 PM 81.1°F27.3°C 65.9°F18.8°C 60% 0.6 mph SE1.0 kmh SE 3.0 mph4.8 kmh 29.98 in1015.2 mb 0.00 in0.0 mm 0.00 in0.0 mm 0.00 in0.0 mm
11:35 PM 81.1°F27.3°C 65.9°F18.8°C 60% 1.3 mph S2.1 kmh S 5.0 mph8.0 kmh 29.98 in1015.2 mb 0.00 in0.0 mm 0.00 in0.0 mm 0.00 in0.0 mm
11:40 PM 81.1°F27.3°C 65.9°F18.8°C 60% 1.1 mph SSE1.8 kmh SSE 5.0 mph8.0 kmh 29.98 in1015.2 mb 0.00 in0.0 mm 0.00 in0.0 mm 0.00 in0.0 mm
11:45 PM 80.9°F27.2°C 65.7°F18.7°C 60% 0.5 mph S0.8 kmh S 3.0 mph4.8 kmh 29.98 in1015.2 mb 0.00 in0.0 mm 0.00 in0.0 mm 0.00 in0.0 mm
11:50 PM 80.7°F27.1°C 65.5°F18.6°C 60% 0.6 mph SSW1.0 kmh SSW 3.0 mph4.8 kmh 29.98 in1015.2 mb 0.00 in0.0 mm 0.00 in0.0 mm 0.00 in0.0 mm
11:55 PM 80.6°F27.0°C 64.9°F18.3°C 59% 0.9 mph SSW1.4 kmh SSW 3.0 mph4.8 kmh 29.98 in1015.2 mb 0.00 in0.0 mm 0.00 in0.0 mm 0.00 in0.0 mm